Time;durP1;ratioP1;P1;durP2;ratioP2;P2;SDS_P1;SDS_P2;PMS_P1;PMS_P2;Temp;Humidity;BMP_temperature;BMP_pressure;BME280_temperature;BME280_humidity;BME280_pressure;Samples;Min_cycle;Max_cycle;Signal;HPM_P1;HPM_P2
2022/09/13 00:00:16;;;;;;;3.40;1.38;;;23.80;67.50;;;;;;5044126;28;20040;-66
2022/09/13 00:02:41;;;;;;;2.08;1.20;;;23.80;67.50;;;;;;5041306;28;20025;-66
2022/09/13 00:05:07;;;;;;;2.63;1.40;;;23.80;67.50;;;;;;5043189;28;20030;-65
2022/09/13 00:07:33;;;;;;;3.60;1.42;;;23.80;67.50;;;;;;5045229;28;20036;-65
2022/09/13 00:09:58;;;;;;;1.65;1.20;;;23.80;67.50;;;;;;5043143;28;20017;-65
2022/09/13 00:12:24;;;;;;;2.47;1.30;;;23.80;67.50;;;;;;5044076;28;20030;-65
2022/09/13 00:14:50;;;;;;;3.13;1.35;;;23.80;67.50;;;;;;5040759;28;20087;-65
2022/09/13 00:17:16;;;;;;;3.92;1.50;;;23.80;67.50;;;;;;5042670;28;20073;-66
2022/09/13 00:19:41;;;;;;;3.85;1.40;;;23.80;67.50;;;;;;5043989;28;20920;-65
2022/09/13 00:22:08;;;;;;;2.35;1.30;;;23.80;67.50;;;;;;5042891;28;20645;-65
2022/09/13 00:24:33;;;;;;;2.20;1.20;;;23.80;67.50;;;;;;5043520;28;20107;-65
2022/09/13 00:26:59;;;;;;;2.65;1.40;;;23.80;67.50;;;;;;5042536;28;20089;-66
2022/09/13 00:29:26;;;;;;;2.13;1.30;;;23.80;67.50;;;;;;5041969;28;20041;-65
2022/09/13 00:31:52;;;;;;;4.20;1.33;;;23.80;67.50;;;;;;5043068;28;20048;-65
2022/09/13 00:34:17;;;;;;;2.22;1.10;;;23.80;67.50;;;;;;5041798;28;20149;-66
2022/09/13 00:36:43;;;;;;;2.55;1.25;;;23.80;67.50;;;;;;5043720;28;20185;-66
2022/09/13 00:39:10;;;;;;;3.65;1.30;;;23.80;67.50;;;;;;5044607;28;20056;-65
2022/09/13 00:41:35;;;;;;;1.67;1.02;;;23.80;67.50;;;;;;5043133;28;20056;-66
2022/09/13 00:44:01;;;;;;;1.33;1.20;;;23.80;67.50;;;;;;5039915;28;20056;-65
2022/09/13 00:46:44;;;;;;;3.10;1.50;;;23.80;68.50;;;;;;5043480;28;20064;-66
2022/09/13 00:49:20;;;;;;;3.53;1.20;;;23.80;67.50;;;;;;5043861;28;20029;-66
2022/09/13 00:51:53;;;;;;;2.40;1.23;;;23.80;67.50;;;;;;5025243;28;20024;-65
2022/09/13 00:54:19;;;;;;;2.15;1.10;;;23.80;67.60;;;;;;5023448;28;20446;-65
2022/09/13 00:56:47;;;;;;;1.75;1.20;;;23.80;67.60;;;;;;5045308;28;20020;-65
2022/09/13 00:59:15;;;;;;;3.58;1.50;;;23.80;67.50;;;;;;5025378;28;20568;-65
2022/09/13 01:01:47;;;;;;;3.30;1.52;;;23.80;67.50;;;;;;5043140;28;20021;-65
2022/09/13 01:04:14;;;;;;;1.95;1.20;;;23.80;68.60;;;;;;5055170;28;20440;-66
2022/09/13 01:06:39;;;;;;;2.05;1.10;;;23.80;67.50;;;;;;5027175;28;20417;-65
2022/09/13 01:09:05;;;;;;;1.88;1.33;;;23.70;67.50;;;;;;5043524;28;20029;-65
2022/09/13 01:11:36;;;;;;;2.33;1.20;;;23.70;67.50;;;;;;5026459;28;20572;-66
2022/09/13 01:14:02;;;;;;;2.53;1.23;;;23.80;67.50;;;;;;5041754;28;20102;-65
2022/09/13 01:16:28;;;;;;;3.22;1.38;;;23.80;67.60;;;;;;5043383;28;20087;-65
2022/09/13 01:18:53;;;;;;;2.63;1.35;;;23.70;67.50;;;;;;5022522;28;20052;-65
2022/09/13 01:21:56;;;;;;;1.58;1.20;;;23.70;67.50;;;;;;5045232;28;20037;-65
2022/09/13 01:24:30;;;;;;;2.15;1.20;;;23.70;67.50;;;;;;5026402;28;20112;-65
2022/09/13 01:27:18;;;;;;;;;;;23.70;67.60;;;;;;5044158;28;20021;-65
2022/09/13 01:30:14;;;;;;;1.95;1.38;;;23.70;67.60;;;;;;5025042;28;19909;-65
2022/09/13 01:32:46;;;;;;;2.78;1.33;;;23.80;67.60;;;;;;5040941;28;20041;-65
2022/09/13 01:35:24;;;;;;;2.95;1.30;;;23.80;67.60;;;;;;5042153;28;20033;-65
2022/09/13 01:37:53;;;;;;;3.70;1.35;;;23.70;67.60;;;;;;5041437;28;20037;-65
2022/09/13 01:40:51;;;;;;;3.10;1.30;;;23.80;67.70;;;;;;5027515;28;20029;-65
2022/09/13 01:43:41;;;;;;;1.95;1.10;;;23.70;67.60;;;;;;4979031;28;20034;-65
2022/09/13 01:46:21;;;;;;;1.83;1.20;;;23.70;67.60;;;;;;4981815;28;20034;-65
2022/09/13 01:48:51;;;;;;;2.70;1.30;;;23.70;67.60;;;;;;4958537;28;20046;-65
2022/09/13 01:51:32;;;;;;;4.60;1.33;;;23.70;67.60;;;;;;4960357;28;20068;-65
2022/09/13 01:54:21;;;;;;;1.75;1.20;;;23.70;67.60;;;;;;4945082;28;20030;-65
2022/09/13 01:57:04;;;;;;;2.55;1.35;;;23.70;67.70;;;;;;4950161;28;20562;-65
2022/09/13 01:59:47;;;;;;;3.67;1.33;;;23.70;67.60;;;;;;4979522;28;20030;-65
2022/09/13 02:02:31;;;;;;;1.15;1.00;;;23.70;67.60;;;;;;4958561;28;20030;-65
2022/09/13 02:05:05;;;;;;;2.25;1.20;;;23.70;67.60;;;;;;4965609;28;20034;-65
2022/09/13 02:07:39;;;;;;;1.92;1.20;;;23.70;67.60;;;;;;4961328;28;20411;-65
2022/09/13 02:10:14;;;;;;;1.60;1.27;;;23.70;67.60;;;;;;4962677;28;20179;-66
2022/09/13 02:12:40;;;;;;;;;;;23.70;67.70;;;;;;4966662;28;20379;-65
2022/09/13 02:15:42;;;;;;;2.45;1.20;;;23.70;67.70;;;;;;4966855;28;19924;-65
2022/09/13 02:18:19;;;;;;;1.70;1.20;;;23.70;67.70;;;;;;4965215;28;20042;-65
2022/09/13 02:20:47;;;;;;;2.53;1.23;;;23.70;67.70;;;;;;4993455;28;20041;-65
2022/09/13 02:23:15;;;;;;;2.10;1.20;;;23.70;67.70;;;;;;5026945;28;20084;-65
2022/09/13 02:25:41;;;;;;;2.65;1.40;;;23.70;67.70;;;;;;5026654;28;20021;-65
2022/09/13 02:28:10;;;;;;;3.28;1.23;;;23.70;67.70;;;;;;5024331;28;20021;-65
2022/09/13 02:30:39;;;;;;;1.70;1.08;;;23.70;67.70;;;;;;5024048;28;20021;-66
2022/09/13 02:33:10;;;;;;;2.33;1.30;;;23.70;67.70;;;;;;5024474;28;20023;-65
2022/09/13 02:35:39;;;;;;;2.30;1.13;;;23.70;67.70;;;;;;5027455;28;20548;-66
2022/09/13 02:38:12;;;;;;;1.25;1.05;;;23.70;67.70;;;;;;5022057;28;20478;-65
2022/09/13 02:40:41;;;;;;;2.38;1.10;;;23.70;67.80;;;;;;5022800;28;20455;-65
2022/09/13 02:43:12;;;;;;;3.75;1.30;;;23.70;67.70;;;;;;5025562;28;20049;-65
2022/09/13 02:46:01;;;;;;;1.50;1.20;;;23.70;67.70;;;;;;5024084;28;20123;-65
2022/09/13 02:48:55;;;;;;;1.98;1.20;;;23.70;67.70;;;;;;5021715;28;20104;-65
2022/09/13 02:51:28;;;;;;;1.60;1.30;;;23.70;67.70;;;;;;5034812;28;20044;-65
2022/09/13 02:54:17;;;;;;;1.73;1.30;;;23.70;67.70;;;;;;5040803;28;20030;-65
2022/09/13 02:56:53;;;;;;;2.78;1.08;;;23.70;67.80;;;;;;5025077;28;20401;-65
2022/09/13 02:59:20;;;;;;;1.55;1.17;;;23.70;67.70;;;;;;5007975;28;20044;-66
2022/09/13 03:02:01;;;;;;;1.48;1.30;;;23.70;68.80;;;;;;5043174;28;20057;-65
2022/09/13 03:04:27;;;;;;;1.75;1.00;;;23.70;67.80;;;;;;5026422;28;20025;-65
2022/09/13 03:06:52;;;;;;;2.13;1.15;;;23.60;67.70;;;;;;5028670;28;20099;-65
2022/09/13 03:09:18;;;;;;;2.80;1.10;;;23.70;67.80;;;;;;5043495;28;20140;-66
2022/09/13 03:12:05;;;;;;;1.63;1.15;;;23.60;67.70;;;;;;5045143;28;20087;-65
2022/09/13 03:14:55;;;;;;;2.10;1.10;;;23.60;67.70;;;;;;5041591;28;20037;-65
2022/09/13 03:17:43;;;;;;;1.73;1.10;;;23.60;67.80;;;;;;5045118;28;20029;-65
2022/09/13 03:20:13;;;;;;;1.88;1.23;;;23.60;67.80;;;;;;5045099;28;20036;-65
2022/09/13 03:23:04;;;;;;;2.13;1.25;;;23.60;67.80;;;;;;5027002;28;20052;-65
2022/09/13 03:25:40;;;;;;;2.03;1.20;;;23.60;67.80;;;;;;5028839;28;20039;-65
2022/09/13 03:28:24;;;;;;;3.25;1.25;;;23.60;67.80;;;;;;5028316;28;20032;-66
2022/09/13 03:30:54;;;;;;;1.90;1.20;;;23.60;67.80;;;;;;5030465;28;20704;-65
2022/09/13 03:33:34;;;;;;;1.33;0.90;;;23.60;67.80;;;;;;5026171;28;20114;-65
2022/09/13 03:36:33;;;;;;;1.65;1.10;;;23.60;67.80;;;;;;5011453;28;20044;-65
2022/09/13 03:39:07;;;;;;;2.03;1.02;;;23.60;67.80;;;;;;5044483;28;20078;-66
2022/09/13 03:41:36;;;;;;;1.47;1.07;;;23.60;67.80;;;;;;5025714;28;20037;-65
2022/09/13 03:44:02;;;;;;;1.83;1.17;;;23.60;67.80;;;;;;5025873;28;20036;-66
2022/09/13 03:46:35;;;;;;;1.65;1.10;;;23.60;68.10;;;;;;5010151;28;20029;-65
2022/09/13 03:49:03;;;;;;;1.65;1.10;;;23.60;67.80;;;;;;5027644;28;20485;-65
2022/09/13 03:51:29;;;;;;;2.03;1.02;;;23.60;67.80;;;;;;5029419;28;20028;-66
2022/09/13 03:54:00;;;;;;;2.05;1.10;;;23.60;67.80;;;;;;5029895;28;20508;-65
2022/09/13 03:56:25;;;;;;;2.22;1.30;;;23.60;67.90;;;;;;5013413;28;20029;-65
2022/09/13 03:58:51;;;;;;;2.03;1.20;;;23.60;67.80;;;;;;5045124;28;20032;-65
2022/09/13 04:01:20;;;;;;;3.70;1.20;;;23.60;67.80;;;;;;5043771;28;20037;-65
2022/09/13 04:03:46;;;;;;;2.30;1.27;;;23.60;67.80;;;;;;5043477;28;20504;-65
2022/09/13 04:06:11;;;;;;;3.13;1.35;;;23.60;67.90;;;;;;5045635;28;20112;-66
2022/09/13 04:08:37;;;;;;;2.05;1.08;;;23.60;67.80;;;;;;5055474;28;20052;-65
2022/09/13 04:11:03;;;;;;;2.00;1.30;;;23.50;67.80;;;;;;5043572;28;20052;-65
2022/09/13 04:13:29;;;;;;;1.45;1.10;;;23.60;67.80;;;;;;5045130;28;20104;-65
2022/09/13 04:15:59;;;;;;;2.22;1.20;;;23.60;67.90;;;;;;5043884;28;20140;-66
2022/09/13 04:18:24;;;;;;;2.53;1.30;;;23.60;67.80;;;;;;5044098;28;20040;-65
2022/09/13 04:20:57;;;;;;;1.42;1.00;;;23.60;67.90;;;;;;5044936;28;20421;-66
2022/09/13 04:23:23;;;;;;;1.15;1.00;;;23.60;67.80;;;;;;5045016;28;20053;-66
2022/09/13 04:25:52;;;;;;;2.10;1.10;;;23.60;67.90;;;;;;5043880;28;20025;-66
2022/09/13 04:28:18;;;;;;;2.25;1.15;;;23.50;67.80;;;;;;5043312;28;20031;-66
2022/09/13 04:30:44;;;;;;;1.95;1.15;;;23.60;67.90;;;;;;5045152;28;20033;-66
2022/09/13 04:33:10;;;;;;;1.83;1.17;;;23.60;68.90;;;;;;5042889;28;20033;-66
2022/09/13 04:35:37;;;;;;;2.60;1.30;;;23.50;67.80;;;;;;5044567;28;20055;-66
2022/09/13 04:38:04;;;;;;;1.67;1.13;;;23.60;67.90;;;;;;5044412;28;20041;-65
2022/09/13 04:40:29;;;;;;;1.50;1.10;;;23.60;67.90;;;;;;5046540;28;20032;-66
2022/09/13 04:42:55;;;;;;;2.65;1.30;;;23.60;67.90;;;;;;5046672;28;20523;-66
2022/09/13 04:45:21;;;;;;;2.58;1.27;;;23.60;67.90;;;;;;5044652;28;20033;-66
2022/09/13 04:47:53;;;;;;;2.20;1.10;;;23.50;67.90;;;;;;5040391;28;20103;-65
2022/09/13 04:50:19;;;;;;;1.95;1.20;;;23.50;67.90;;;;;;5041610;28;20032;-66
2022/09/13 04:52:45;;;;;;;1.40;1.20;;;23.60;67.90;;;;;;5041580;28;20033;-66
2022/09/13 04:55:11;;;;;;;2.15;1.10;;;23.50;67.90;;;;;;5043003;28;20032;-65
2022/09/13 04:57:37;;;;;;;1.58;1.17;;;23.50;67.90;;;;;;5043860;28;20367;-66
2022/09/13 05:00:04;;;;;;;2.05;1.30;;;23.50;67.90;;;;;;5044815;28;20036;-66
2022/09/13 05:02:29;;;;;;;2.03;1.10;;;23.50;67.90;;;;;;5041075;28;20029;-65
2022/09/13 05:04:55;;;;;;;3.47;1.20;;;23.50;68.00;;;;;;5043940;28;20401;-65
2022/09/13 05:07:21;;;;;;;1.83;1.10;;;23.50;67.90;;;;;;5041763;28;20394;-65
2022/09/13 05:09:47;;;;;;;1.40;1.00;;;23.50;67.90;;;;;;5041812;28;20026;-65
2022/09/13 05:12:12;;;;;;;2.70;1.38;;;23.50;67.90;;;;;;5043609;28;20032;-66
2022/09/13 05:14:38;;;;;;;1.52;1.20;;;23.50;68.00;;;;;;5041319;28;20061;-65
2022/09/13 05:17:04;;;;;;;2.25;1.20;;;23.50;67.90;;;;;;5040961;28;20029;-65
2022/09/13 05:19:30;;;;;;;2.10;1.00;;;23.50;67.90;;;;;;5043672;28;20136;-66
2022/09/13 05:21:58;;;;;;;1.90;1.20;;;23.50;67.90;;;;;;5031989;28;20515;-65
2022/09/13 05:24:23;;;;;;;3.17;1.10;;;23.50;67.90;;;;;;5041393;28;20070;-65
2022/09/13 05:26:51;;;;;;;2.53;1.13;;;23.50;68.20;;;;;;5045214;28;20029;-66
2022/09/13 05:29:25;;;;;;;1.10;1.00;;;23.50;68.00;;;;;;5026502;28;20041;-66
2022/09/13 05:31:51;;;;;;;3.88;1.38;;;23.50;68.20;;;;;;5039018;28;20132;-63
2022/09/13 05:34:17;;;;;;;3.08;1.50;;;23.60;68.60;;;;;;5041339;28;20041;-65
2022/09/13 05:36:42;;;;;;;6.82;1.40;;;23.60;68.60;;;;;;5041929;28;20118;-65
2022/09/13 05:39:13;;;;;;;3.53;1.30;;;23.60;68.70;;;;;;5044225;28;20028;-66
2022/09/13 05:41:40;;;;;;;2.28;1.30;;;23.60;68.90;;;;;;5044582;28;20098;-65
2022/09/13 05:44:05;;;;;;;5.40;1.40;;;23.60;68.90;;;;;;5041243;28;20044;-65
2022/09/13 05:46:31;;;;;;;3.88;1.40;;;23.60;69.10;;;;;;5041981;28;20397;-65
2022/09/13 05:48:57;;;;;;;7.35;1.83;;;23.60;69.10;;;;;;5042005;28;20118;-66
2022/09/13 05:51:23;;;;;;;5.93;1.80;;;23.60;69.30;;;;;;5044043;28;20587;-66
2022/09/13 05:53:49;;;;;;;4.20;1.30;;;23.60;69.20;;;;;;5039789;28;20025;-65
2022/09/13 05:56:20;;;;;;;7.72;1.80;;;23.60;69.20;;;;;;5039291;28;20033;-65
2022/09/13 05:58:49;;;;;;;7.45;1.70;;;23.60;69.10;;;;;;5043599;28;20056;-66
2022/09/13 06:01:16;;;;;;;5.93;1.50;;;23.60;69.00;;;;;;5042143;28;20111;-65
2022/09/13 06:03:42;;;;;;;6.03;1.90;;;23.50;68.90;;;;;;5042796;28;20028;-64
2022/09/13 06:06:07;;;;;;;5.18;1.40;;;23.60;69.00;;;;;;5041549;28;20037;-65
2022/09/13 06:08:33;;;;;;;5.82;1.65;;;23.50;68.90;;;;;;5023221;28;20077;-65
2022/09/13 06:11:01;;;;;;;5.68;1.30;;;23.50;68.90;;;;;;5043782;28;20171;-65
2022/09/13 06:13:27;;;;;;;6.35;1.67;;;23.50;69.00;;;;;;5038760;28;20036;-66
2022/09/13 06:15:54;;;;;;;6.90;1.60;;;23.50;69.00;;;;;;5042987;28;20516;-66
2022/09/13 06:18:20;;;;;;;7.22;2.10;;;23.50;69.00;;;;;;5041350;28;20108;-65
2022/09/13 06:20:45;;;;;;;5.72;1.75;;;23.50;68.90;;;;;;5042271;28;20532;-65
2022/09/13 06:23:11;;;;;;;5.68;1.70;;;23.50;69.00;;;;;;5024890;28;20067;-66
2022/09/13 06:25:37;;;;;;;8.65;1.55;;;23.50;69.10;;;;;;5040575;28;20112;-65
2022/09/13 06:28:03;;;;;;;4.88;1.73;;;23.50;69.10;;;;;;5041045;28;20187;-65
2022/09/13 06:30:29;;;;;;;4.95;1.80;;;23.50;69.10;;;;;;5041805;28;20029;-65
2022/09/13 06:32:58;;;;;;;7.35;1.80;;;23.50;69.10;;;;;;5040049;28;20029;-66
2022/09/13 06:35:23;;;;;;;2.75;1.60;;;23.50;69.10;;;;;;5040955;28;20505;-65
2022/09/13 06:37:49;;;;;;;5.00;1.73;;;23.50;69.20;;;;;;5041796;28;20024;-65
2022/09/13 06:40:15;;;;;;;5.68;1.70;;;23.50;69.20;;;;;;5044031;28;20021;-66
2022/09/13 06:42:41;;;;;;;4.63;1.70;;;23.50;69.20;;;;;;5046685;28;20033;-66
2022/09/13 06:45:07;;;;;;;8.02;1.70;;;23.50;69.20;;;;;;5047487;28;20032;-65
2022/09/13 06:47:33;;;;;;;4.90;1.80;;;23.50;69.20;;;;;;5045897;28;20075;-66
2022/09/13 06:49:59;;;;;;;5.50;1.75;;;23.50;69.20;;;;;;5048067;28;20025;-65
2022/09/13 06:52:25;;;;;;;4.72;1.60;;;23.50;69.20;;;;;;5044266;28;20048;-65
2022/09/13 06:54:51;;;;;;;6.22;1.70;;;23.50;69.30;;;;;;5044056;28;20030;-66
2022/09/13 06:57:16;;;;;;;3.63;1.58;;;23.40;69.20;;;;;;5045989;28;20072;-65
2022/09/13 06:59:42;;;;;;;4.72;1.70;;;23.50;69.20;;;;;;5046669;28;20035;-65
2022/09/13 07:02:09;;;;;;;4.28;1.70;;;23.50;69.20;;;;;;5041939;28;20147;-65
2022/09/13 07:04:35;;;;;;;4.88;1.55;;;23.50;69.20;;;;;;5044417;28;20051;-65
2022/09/13 07:07:00;;;;;;;4.95;1.75;;;23.50;69.30;;;;;;5045275;28;20474;-65
2022/09/13 07:09:26;;;;;;;5.30;1.58;;;23.50;69.30;;;;;;5045935;28;20463;-65
2022/09/13 07:11:53;;;;;;;5.22;1.60;;;23.50;69.20;;;;;;5041966;28;20027;-65
2022/09/13 07:14:21;;;;;;;2.30;1.48;;;23.50;69.20;;;;;;5043271;28;20402;-66
2022/09/13 07:16:47;;;;;;;6.22;1.85;;;23.50;69.20;;;;;;5045016;28;20043;-65
2022/09/13 07:19:17;;;;;;;3.85;1.52;;;23.50;69.20;;;;;;5045846;28;20335;-65
2022/09/13 07:21:43;;;;;;;6.40;1.50;;;23.50;69.30;;;;;;5045229;28;20094;-65
2022/09/13 07:24:09;;;;;;;4.50;1.70;;;23.40;69.20;;;;;;5044258;28;20033;-66
2022/09/13 07:26:34;;;;;;;4.57;1.60;;;23.50;69.20;;;;;;5045119;28;20108;-65
2022/09/13 07:29:02;;;;;;;3.85;1.48;;;23.40;69.20;;;;;;5045206;28;20509;-66
2022/09/13 07:31:32;;;;;;;6.82;1.83;;;23.50;69.30;;;;;;5042657;28;20630;-65
2022/09/13 07:33:59;;;;;;;4.97;1.42;;;23.40;69.20;;;;;;5044060;28;20098;-66
2022/09/13 07:36:26;;;;;;;4.78;1.63;;;23.40;69.20;;;;;;5044479;28;20061;-65
2022/09/13 07:38:51;;;;;;;2.65;1.63;;;23.40;69.20;;;;;;5043071;28;20297;-65
2022/09/13 07:41:18;;;;;;;4.30;1.45;;;23.40;69.30;;;;;;5045358;28;20527;-65
2022/09/13 07:43:44;;;;;;;5.80;1.60;;;23.40;69.20;;;;;;5045598;28;20033;-65
2022/09/13 07:46:11;;;;;;;4.32;1.50;;;23.40;69.30;;;;;;5028045;28;20036;-65
2022/09/13 07:48:38;;;;;;;5.30;1.50;;;23.40;69.20;;;;;;5046229;28;20025;-65
2022/09/13 07:51:05;;;;;;;6.32;1.77;;;23.40;69.20;;;;;;5041845;28;20121;-65
2022/09/13 07:53:31;;;;;;;6.18;1.75;;;23.40;69.30;;;;;;5046001;28;20024;-66
2022/09/13 07:56:07;;;;;;;4.05;1.52;;;23.40;69.20;;;;;;5044816;28;20045;-65
2022/09/13 07:58:34;;;;;;;4.68;1.73;;;23.40;69.20;;;;;;5044309;28;20098;-65
2022/09/13 08:01:10;;;;;;;3.92;1.52;;;23.40;69.20;;;;;;5045012;28;20056;-66
2022/09/13 08:03:36;;;;;;;6.15;1.77;;;23.40;69.30;;;;;;5028015;28;20509;-65
2022/09/13 08:06:02;;;;;;;6.35;1.98;;;23.40;69.30;;;;;;5043679;28;20043;-65
2022/09/13 08:08:28;;;;;;;4.60;1.73;;;23.40;69.30;;;;;;5044353;28;20105;-65
2022/09/13 08:10:54;;;;;;;5.25;1.83;;;23.40;69.40;;;;;;5045660;28;20033;-65
2022/09/13 08:13:19;;;;;;;6.30;2.03;;;23.40;69.40;;;;;;5045584;28;20366;-65
2022/09/13 08:15:45;;;;;;;3.65;1.55;;;23.40;69.40;;;;;;5042078;28;20037;-65
2022/09/13 08:18:11;;;;;;;4.38;1.70;;;23.40;69.40;;;;;;5043794;28;20116;-65
2022/09/13 08:20:37;;;;;;;4.90;1.60;;;23.40;69.40;;;;;;5043096;28;20044;-65
2022/09/13 08:23:04;;;;;;;4.78;1.60;;;23.40;69.40;;;;;;5044977;28;20029;-65
2022/09/13 08:25:34;;;;;;;4.97;1.75;;;23.40;69.30;;;;;;5042430;28;20037;-66
2022/09/13 08:28:01;;;;;;;4.05;1.50;;;23.40;69.40;;;;;;5042150;28;20017;-65
2022/09/13 08:30:32;;;;;;;4.53;1.60;;;23.40;69.20;;;;;;5024998;28;20457;-65
2022/09/13 08:33:01;;;;;;;3.80;1.70;;;23.40;69.30;;;;;;5046630;28;20237;-66
2022/09/13 08:35:28;;;;;;;4.13;1.55;;;23.50;69.50;;;;;;5043922;28;20135;-61
2022/09/13 08:37:54;;;;;;;5.60;1.80;;;23.50;69.30;;;;;;5045620;28;20676;-60
2022/09/13 08:40:21;;;;;;;5.70;1.85;;;23.50;69.60;;;;;;5044147;28;20120;-59
2022/09/13 08:43:23;;;;;;;5.78;1.70;;;23.50;69.50;;;;;;5027624;28;20476;-60
2022/09/13 08:45:50;;;;;;;4.07;1.40;;;23.50;69.50;;;;;;5029136;28;20035;-59
2022/09/13 08:48:18;;;;;;;5.15;1.58;;;23.50;69.70;;;;;;5027483;28;20021;-61
2022/09/13 08:50:43;;;;;;;5.57;1.60;;;23.50;70.70;;;;;;5026208;28;20041;-58
2022/09/13 08:53:15;;;;;;;4.88;1.60;;;23.50;69.60;;;;;;5027357;28;20035;-59
2022/09/13 08:56:07;;;;;;;10.70;2.00;;;23.50;69.70;;;;;;5043135;28;20065;-60
2022/09/13 08:58:43;;;;;;;4.50;1.60;;;23.60;69.60;;;;;;5042399;28;20055;-59
2022/09/13 09:01:34;;;;;;;4.85;1.40;;;23.60;69.60;;;;;;5025626;28;20047;-60
2022/09/13 09:04:08;;;;;;;4.50;1.40;;;23.60;69.50;;;;;;5025233;28;20075;-61
2022/09/13 09:06:34;;;;;;;;;;;23.70;69.60;;;;;;5044987;28;20491;-59
2022/09/13 09:09:09;;;;;;;2.90;1.50;;;23.70;69.50;;;;;;5040297;28;19909;-60
2022/09/13 09:11:41;;;;;;;;;;;23.70;69.40;;;;;;5010430;28;20397;-60
2022/09/13 09:14:32;;;;;;;4.15;1.67;;;23.70;69.50;;;;;;5040367;28;19913;-62
2022/09/13 09:16:59;;;;;;;4.45;1.50;;;23.70;69.70;;;;;;5042108;28;20026;-61
2022/09/13 09:19:37;;;;;;;5.68;1.83;;;23.70;69.70;;;;;;5042161;28;20045;-60
2022/09/13 09:22:30;;;;;;;4.78;1.83;;;23.70;69.70;;;;;;5021392;28;20087;-59
2022/09/13 09:24:56;;;;;;;4.60;1.52;;;23.80;69.60;;;;;;5025409;28;20033;-59
2022/09/13 09:27:22;;;;;;;4.50;1.80;;;23.80;69.60;;;;;;5023545;28;20434;-60
2022/09/13 09:29:49;;;;;;;5.10;1.98;;;23.80;69.60;;;;;;5041208;28;20023;-60
2022/09/13 09:32:30;;;;;;;6.13;2.00;;;23.80;69.60;;;;;;5041439;28;20033;-60
2022/09/13 09:35:33;;;;;;;5.70;1.70;;;23.80;69.60;;;;;;5040443;28;20029;-60
2022/09/13 09:38:19;;;;;;;4.90;1.80;;;23.80;69.50;;;;;;5036849;28;20033;-60
2022/09/13 09:40:45;;;;;;;4.93;1.80;;;23.80;69.60;;;;;;5027587;28;20554;-61
2022/09/13 09:43:28;;;;;;;5.80;1.90;;;23.80;69.60;;;;;;5024053;28;20025;-61
2022/09/13 09:45:54;;;;;;;8.95;2.10;;;23.80;69.60;;;;;;5020688;28;20485;-62
2022/09/13 09:48:23;;;;;;;7.35;2.03;;;23.80;69.50;;;;;;5026441;28;20033;-61
2022/09/13 09:50:53;;;;;;;6.97;2.00;;;23.80;69.40;;;;;;5025582;28;20025;-61
2022/09/13 09:53:46;;;;;;;5.07;1.88;;;23.80;69.40;;;;;;5025978;28;20032;-61
2022/09/13 09:56:24;;;;;;;5.35;2.15;;;23.90;69.50;;;;;;5040897;28;20094;-61
2022/09/13 09:58:50;;;;;;;5.93;2.00;;;23.90;69.50;;;;;;5044494;28;20028;-59
2022/09/13 10:01:24;;;;;;;6.03;2.00;;;23.90;69.40;;;;;;5005854;28;20029;-62
2022/09/13 10:03:54;;;;;;;4.87;1.80;;;23.90;69.50;;;;;;5039327;28;20040;-62
2022/09/13 10:06:24;;;;;;;5.05;2.08;;;23.90;69.40;;;;;;5041352;28;20026;-63
2022/09/13 10:09:01;;;;;;;6.50;2.08;;;23.90;69.30;;;;;;5025325;28;20025;-61
2022/09/13 10:11:43;;;;;;;6.32;2.00;;;23.90;69.30;;;;;;5022697;28;20405;-62
2022/09/13 10:14:26;;;;;;;5.18;2.10;;;24.00;69.30;;;;;;5039352;28;20082;-62
2022/09/13 10:17:05;;;;;;;4.72;1.98;;;24.00;69.20;;;;;;5030396;28;20025;-62
2022/09/13 10:19:31;;;;;;;6.05;1.90;;;24.00;69.20;;;;;;5046398;28;20120;-61
2022/09/13 10:22:02;;;;;;;6.95;2.20;;;24.00;69.10;;;;;;5045131;28;20124;-62
2022/09/13 10:24:28;;;;;;;6.78;1.95;;;24.00;69.00;;;;;;5046676;28;20108;-61
2022/09/13 10:26:54;;;;;;;5.60;2.08;;;24.00;69.00;;;;;;5047902;28;20038;-61
2022/09/13 10:29:20;;;;;;;8.80;2.20;;;24.00;68.80;;;;;;5046035;28;20448;-61
2022/09/13 10:31:46;;;;;;;6.10;1.92;;;24.10;69.00;;;;;;5030745;28;20116;-62
2022/09/13 10:34:29;;;;;;;5.70;2.20;;;24.10;68.80;;;;;;5030106;28;20063;-61
2022/09/13 10:36:57;;;;;;;6.03;2.10;;;24.10;68.80;;;;;;5013242;28;20048;-61
2022/09/13 10:39:23;;;;;;;8.15;2.40;;;24.10;68.70;;;;;;5027852;28;20394;-61
2022/09/13 10:42:05;;;;;;;7.05;2.22;;;24.10;68.80;;;;;;5028759;28;20028;-61
2022/09/13 10:44:44;;;;;;;8.48;1.92;;;24.10;68.80;;;;;;5027565;28;20045;-61
2022/09/13 10:47:22;;;;;;;8.48;2.30;;;24.10;68.70;;;;;;5027672;28;20021;-61
2022/09/13 10:49:51;;;;;;;6.65;1.95;;;24.10;68.80;;;;;;5030126;28;20025;-61
2022/09/13 10:52:40;;;;;;;5.95;2.00;;;24.10;68.70;;;;;;5044028;28;20057;-62
2022/09/13 10:55:18;;;;;;;6.05;2.13;;;24.10;68.70;;;;;;5045681;28;20033;-61
2022/09/13 10:57:54;;;;;;;7.60;2.40;;;24.10;68.70;;;;;;5045104;28;20028;-61
2022/09/13 11:00:29;;;;;;;7.88;1.98;;;24.10;68.60;;;;;;5044385;28;20017;-61
2022/09/13 11:03:08;;;;;;;5.18;2.00;;;24.10;68.60;;;;;;5026476;28;20083;-61
2022/09/13 11:05:48;;;;;;;4.45;1.88;;;24.10;68.50;;;;;;5028265;28;20025;-61
2022/09/13 11:08:14;;;;;;;6.28;1.90;;;24.10;68.50;;;;;;5044463;28;20032;-61
2022/09/13 11:10:46;;;;;;;5.18;2.03;;;24.20;68.50;;;;;;5046445;28;20021;-61
2022/09/13 11:13:21;;;;;;;5.00;2.13;;;24.20;68.50;;;;;;5029779;28;20031;-61
2022/09/13 11:16:15;;;;;;;6.35;2.03;;;24.20;68.40;;;;;;5046707;28;20130;-61
2022/09/13 11:18:50;;;;;;;6.32;2.20;;;24.20;68.40;;;;;;5043619;28;20045;-60
2022/09/13 11:21:34;;;;;;;;;;;24.20;68.40;;;;;;5029231;28;20031;-61
2022/09/13 11:24:12;;;;;;;5.93;1.80;;;24.20;68.30;;;;;;5043849;28;20304;-61
2022/09/13 11:27:04;;;;;;;4.90;2.00;;;24.20;68.30;;;;;;5026526;28;20045;-61
2022/09/13 11:29:51;;;;;;;5.28;2.00;;;24.20;68.20;;;;;;5045796;28;20017;-61
2022/09/13 11:32:39;;;;;;;8.75;2.05;;;24.20;68.20;;;;;;5042716;28;20060;-61
2022/09/13 11:35:42;;;;;;;4.63;2.25;;;24.20;68.10;;;;;;5045677;28;20041;-61
2022/09/13 11:38:42;;;;;;;4.47;1.80;;;24.30;68.10;;;;;;5029628;28;20025;-61
2022/09/13 11:41:27;;;;;;;6.93;2.00;;;24.30;68.00;;;;;;5024333;28;20016;-61
2022/09/13 11:43:55;;;;;;;8.82;2.35;;;24.30;67.90;;;;;;5044144;28;20126;-61
2022/09/13 11:46:21;;;;;;;5.80;2.30;;;24.30;67.90;;;;;;5041986;28;20534;-61
2022/09/13 11:49:11;;;;;;;7.13;2.38;;;24.30;67.80;;;;;;5043086;28;20021;-61
2022/09/13 11:51:41;;;;;;;5.38;2.20;;;24.30;67.80;;;;;;5042770;28;20112;-61
2022/09/13 11:54:13;;;;;;;6.03;1.90;;;24.30;67.70;;;;;;5044539;28;20025;-61
2022/09/13 11:56:41;;;;;;;4.45;2.00;;;24.40;67.70;;;;;;5027158;28;20036;-61
2022/09/13 11:59:13;;;;;;;5.75;2.10;;;24.40;68.70;;;;;;5027636;28;20504;-62
2022/09/13 12:01:44;;;;;;;7.00;2.25;;;24.40;67.40;;;;;;5043737;28;20033;-61
2022/09/13 12:04:34;;;;;;;5.88;2.17;;;24.40;67.40;;;;;;5027633;28;20032;-61
2022/09/13 12:07:02;;;;;;;5.88;1.73;;;24.40;67.30;;;;;;5016909;28;20028;-61
2022/09/13 12:09:32;;;;;;;3.42;1.90;;;24.50;67.30;;;;;;5022651;28;20029;-61
2022/09/13 12:12:11;;;;;;;4.88;2.00;;;24.50;67.30;;;;;;5027815;28;20063;-59
2022/09/13 12:14:58;;;;;;;5.15;2.00;;;24.60;67.30;;;;;;5027335;28;20397;-59
2022/09/13 12:17:38;;;;;;;4.93;1.85;;;24.70;66.90;;;;;;5026574;28;20037;-59
2022/09/13 12:20:10;;;;;;;4.95;1.80;;;24.70;66.70;;;;;;5026821;28;20076;-59
2022/09/13 12:22:36;;;;;;;5.57;2.10;;;24.80;66.60;;;;;;5029339;28;20607;-59
2022/09/13 12:25:06;;;;;;;5.63;2.20;;;24.80;66.60;;;;;;5026763;28;20207;-59
2022/09/13 12:28:11;;;;;;;5.78;2.15;;;24.80;66.60;;;;;;5046019;28;20108;-59
2022/09/13 12:30:43;;;;;;;5.77;2.00;;;24.80;66.70;;;;;;5052123;28;20126;-60
2022/09/13 12:33:14;;;;;;;5.25;2.10;;;24.70;66.70;;;;;;5030450;28;20516;-59
2022/09/13 12:36:16;;;;;;;6.97;2.40;;;24.70;66.70;;;;;;5024059;28;20041;-59
2022/09/13 12:39:09;;;;;;;4.85;2.08;;;24.80;66.70;;;;;;4990489;28;20038;-59
2022/09/13 12:41:40;;;;;;;5.10;2.20;;;24.70;66.70;;;;;;4985430;28;20058;-60
2022/09/13 12:44:18;;;;;;;5.57;1.95;;;24.70;66.70;;;;;;4981264;28;20030;-60
2022/09/13 12:46:54;;;;;;;6.43;2.08;;;24.70;66.70;;;;;;4983999;28;20427;-59
2022/09/13 12:49:25;;;;;;;3.97;2.17;;;24.70;66.70;;;;;;4985228;28;20057;-60
2022/09/13 12:52:17;;;;;;;6.07;2.40;;;24.70;66.70;;;;;;4986580;28;20073;-60
2022/09/13 12:54:54;;;;;;;3.55;1.83;;;24.70;66.70;;;;;;4985361;28;20390;-60
2022/09/13 12:57:26;;;;;;;5.53;2.15;;;24.70;66.80;;;;;;4986054;28;20053;-60
2022/09/13 13:00:00;;;;;;;5.40;2.30;;;24.70;66.80;;;;;;4985079;28;20622;-60
2022/09/13 13:02:41;;;;;;;6.50;2.40;;;24.70;66.80;;;;;;4984975;28;20065;-61
2022/09/13 13:05:35;;;;;;;5.60;2.17;;;24.70;66.80;;;;;;4981796;28;20041;-63
2022/09/13 13:08:16;;;;;;;5.43;2.35;;;24.70;66.80;;;;;;4985120;28;20038;-61
2022/09/13 13:10:41;;;;;;;4.97;2.10;;;24.70;66.90;;;;;;4983896;28;20037;-61
2022/09/13 13:13:14;;;;;;;4.95;1.95;;;24.70;66.90;;;;;;5022746;28;20120;-60